createdAt,value
2019-02-26T00:00:14.410Z,7.90
2019-02-26T00:01:26.183Z,7.90
2019-02-26T00:02:38.191Z,7.90
2019-02-26T00:03:49.296Z,7.90
2019-02-26T00:04:58.544Z,7.90
2019-02-26T00:06:07.061Z,7.90
2019-02-26T00:07:18.263Z,7.90
2019-02-26T00:08:31.700Z,7.90
2019-02-26T00:09:41.335Z,7.90
2019-02-26T00:10:50.306Z,7.80
2019-02-26T00:11:59.776Z,7.80
2019-02-26T00:13:10.631Z,7.80
2019-02-26T00:14:20.248Z,7.90
2019-02-26T00:15:33.384Z,7.80
2019-02-26T00:16:42.413Z,7.90
2019-02-26T00:17:53.008Z,7.90
2019-02-26T00:19:03.146Z,7.80
2019-02-26T00:20:12.775Z,7.80
2019-02-26T00:21:24.428Z,7.80
2019-02-26T00:22:34.378Z,7.80
2019-02-26T00:23:46.662Z,7.80
2019-02-26T00:24:54.720Z,7.80
2019-02-26T00:26:05.721Z,7.80
2019-02-26T00:27:15.144Z,7.80
2019-02-26T00:28:26.301Z,7.70
2019-02-26T00:29:35.886Z,7.70
2019-02-26T00:30:43.866Z,7.70
2019-02-26T00:31:55.444Z,7.70
2019-02-26T00:33:03.504Z,7.70
2019-02-26T00:34:16.853Z,7.60
2019-02-26T00:35:27.671Z,7.70
2019-02-26T00:36:38.176Z,7.60
2019-02-26T00:37:47.035Z,7.60
2019-02-26T00:38:56.043Z,7.60
2019-02-26T00:40:05.483Z,7.60
2019-02-26T00:41:14.244Z,7.60
2019-02-26T00:42:26.356Z,7.60
2019-02-26T00:43:35.039Z,7.60
2019-02-26T00:44:43.802Z,7.60
2019-02-26T00:45:53.406Z,7.60
2019-02-26T00:47:03.910Z,7.60
2019-02-26T00:48:12.235Z,7.50
2019-02-26T00:49:23.688Z,7.50
2019-02-26T00:50:33.152Z,7.50
2019-02-26T00:51:44.371Z,7.50
2019-02-26T00:52:52.750Z,7.50
2019-02-26T00:54:01.982Z,7.40
2019-02-26T00:55:13.403Z,7.40
2019-02-26T00:56:22.822Z,7.40
2019-02-26T00:57:33.540Z,7.40
2019-02-26T00:58:44.497Z,7.40
2019-02-26T00:59:55.138Z,7.40
2019-02-26T01:01:03.850Z,7.40
2019-02-26T01:02:13.407Z,7.40
2019-02-26T01:03:22.137Z,7.40
2019-02-26T01:04:33.504Z,7.40
2019-02-26T01:05:43.151Z,7.40
2019-02-26T01:06:56.751Z,7.40
2019-02-26T01:08:10.505Z,7.30
2019-02-26T01:09:15.710Z,7.30
2019-02-26T01:10:24.707Z,7.30
2019-02-26T01:11:33.447Z,7.20
2019-02-26T01:12:42.863Z,7.20
2019-02-26T01:13:51.210Z,7.20
2019-02-26T01:15:04.661Z,7.20
2019-02-26T01:16:14.284Z,7.20
2019-02-26T01:17:22.970Z,7.10
2019-02-26T01:18:30.736Z,7.10
2019-02-26T01:19:42.983Z,7.10
2019-02-26T01:20:56.792Z,7.10
2019-02-26T01:22:06.108Z,7.00
2019-02-26T01:23:13.973Z,7.00
2019-02-26T01:24:23.526Z,7.00
2019-02-26T01:25:32.754Z,7.00
2019-02-26T01:26:42.684Z,7.00
2019-02-26T01:27:53.232Z,7.00
2019-02-26T01:29:01.838Z,7.00
2019-02-26T01:30:12.390Z,7.00
2019-02-26T01:31:24.723Z,6.90
2019-02-26T01:32:34.125Z,6.90
2019-02-26T01:33:43.639Z,6.90
2019-02-26T01:34:51.421Z,6.90
2019-02-26T01:36:00.287Z,6.90
2019-02-26T01:37:10.334Z,6.80
2019-02-26T01:38:21.275Z,6.80
2019-02-26T01:39:29.315Z,6.80
2019-02-26T01:40:41.539Z,6.80
2019-02-26T01:41:51.185Z,6.80
2019-02-26T01:43:02.570Z,6.80
2019-02-26T01:44:10.012Z,6.80
2019-02-26T01:45:21.755Z,6.80
2019-02-26T01:46:32.889Z,6.70
2019-02-26T01:47:45.273Z,6.80
2019-02-26T01:48:55.058Z,6.70
2019-02-26T01:50:04.637Z,6.80
2019-02-26T01:51:17.022Z,6.80
2019-02-26T01:52:26.423Z,6.70
2019-02-26T01:53:35.308Z,6.70
2019-02-26T01:54:47.532Z,6.70
2019-02-26T01:55:56.241Z,6.70
2019-02-26T01:57:04.074Z,6.70
2019-02-26T01:58:16.600Z,6.70
2019-02-26T01:59:24.979Z,6.70
2019-02-26T02:00:38.663Z,6.70
2019-02-26T02:01:46.516Z,6.60
2019-02-26T02:02:57.138Z,6.60
2019-02-26T02:04:08.746Z,6.60
2019-02-26T02:05:21.422Z,6.70
2019-02-26T02:06:32.119Z,6.60
2019-02-26T02:07:39.901Z,6.60
2019-02-26T02:08:50.475Z,6.60
2019-02-26T02:10:00.607Z,6.60
2019-02-26T02:11:12.050Z,6.60
2019-02-26T02:12:19.815Z,6.60
2019-02-26T02:13:30.673Z,6.60
2019-02-26T02:14:38.920Z,6.60
2019-02-26T02:15:47.734Z,6.60
2019-02-26T02:16:59.032Z,6.50
2019-02-26T02:18:07.722Z,6.50
2019-02-26T02:19:20.061Z,6.60
2019-02-26T02:20:27.401Z,6.50
2019-02-26T02:21:39.668Z,6.50
2019-02-26T02:22:50.247Z,6.50
2019-02-26T02:23:58.849Z,6.50
2019-02-26T02:25:08.663Z,6.50
2019-02-26T02:26:19.974Z,6.50
2019-02-26T02:27:31.048Z,6.50
2019-02-26T02:28:40.226Z,6.50
2019-02-26T02:29:51.254Z,6.50
2019-02-26T02:31:00.783Z,6.50
2019-02-26T02:32:08.593Z,6.50
2019-02-26T02:33:24.245Z,6.50
2019-02-26T02:34:33.049Z,6.50
2019-02-26T02:35:43.332Z,6.50
2019-02-26T02:36:51.060Z,6.50
2019-02-26T02:38:00.097Z,6.40
2019-02-26T02:39:13.015Z,6.40
2019-02-26T02:40:21.461Z,6.40
2019-02-26T02:41:30.137Z,6.40
2019-02-26T02:42:40.233Z,6.40
2019-02-26T02:43:50.203Z,6.40
2019-02-26T02:44:59.800Z,6.40
2019-02-26T02:46:07.580Z,6.40
2019-02-26T02:47:16.859Z,6.40
2019-02-26T02:48:24.667Z,6.40
2019-02-26T02:49:38.249Z,6.40
2019-02-26T02:50:44.915Z,6.40
2019-02-26T02:51:58.862Z,6.40
2019-02-26T02:53:06.989Z,6.40
2019-02-26T02:54:18.570Z,6.40
2019-02-26T02:55:26.855Z,6.40
2019-02-26T02:56:39.883Z,6.40
2019-02-26T02:57:52.365Z,6.40
2019-02-26T02:58:58.597Z,6.40
2019-02-26T03:00:09.119Z,6.40
2019-02-26T03:01:20.384Z,6.40
2019-02-26T03:02:30.640Z,6.40
2019-02-26T03:03:39.861Z,6.40
2019-02-26T03:04:47.997Z,6.40
2019-02-26T03:05:58.231Z,6.40
2019-02-26T03:07:06.358Z,6.30
2019-02-26T03:08:16.342Z,6.40
2019-02-26T03:09:25.124Z,6.30
2019-02-26T03:10:34.574Z,6.30
2019-02-26T03:11:46.427Z,6.30
2019-02-26T03:12:57.643Z,6.30
2019-02-26T03:14:08.299Z,6.30
2019-02-26T03:15:16.265Z,6.30
2019-02-26T03:16:26.802Z,6.30
2019-02-26T03:17:34.433Z,6.30
2019-02-26T03:18:43.112Z,6.30
2019-02-26T03:19:50.895Z,6.30
2019-02-26T03:20:59.977Z,6.30
2019-02-26T03:22:09.806Z,6.30
2019-02-26T03:23:20.297Z,6.30
2019-02-26T03:24:30.778Z,6.30
2019-02-26T03:25:37.567Z,6.30
2019-02-26T03:26:47.397Z,6.30
2019-02-26T03:27:56.216Z,6.30
2019-02-26T03:29:04.015Z,6.30
2019-02-26T03:30:26.525Z,6.30
2019-02-26T03:31:31.044Z,6.30
2019-02-26T03:32:41.430Z,6.30
2019-02-26T03:33:48.079Z,6.20
2019-02-26T03:34:55.967Z,6.20
2019-02-26T03:36:07.585Z,6.20
2019-02-26T03:37:15.806Z,6.20
2019-02-26T03:38:26.248Z,6.20
2019-02-26T03:39:34.390Z,6.20
2019-02-26T03:40:43.878Z,6.20
2019-02-26T03:41:54.151Z,6.20
2019-02-26T03:43:04.528Z,6.20
2019-02-26T03:44:16.662Z,6.20
2019-02-26T03:45:25.475Z,6.20
2019-02-26T03:46:33.159Z,6.20
2019-02-26T03:47:43.832Z,6.20
2019-02-26T03:48:56.852Z,6.20
2019-02-26T03:50:08.567Z,6.20
2019-02-26T03:51:17.144Z,6.20
2019-02-26T03:52:26.112Z,6.10
2019-02-26T03:53:36.436Z,6.10
2019-02-26T03:54:47.995Z,6.10
2019-02-26T03:55:59.590Z,6.10
2019-02-26T03:57:05.105Z,6.10
2019-02-26T03:58:12.981Z,6.10
2019-02-26T03:59:21.208Z,6.10
2019-02-26T04:00:32.454Z,6.10
2019-02-26T04:01:42.570Z,6.10
2019-02-26T04:02:52.127Z,6.10
2019-02-26T04:04:05.481Z,6.10
2019-02-26T04:05:13.848Z,6.10
2019-02-26T04:06:24.270Z,6.10
2019-02-26T04:07:33.950Z,6.10
2019-02-26T04:08:46.196Z,6.10
2019-02-26T04:09:55.927Z,6.10
2019-02-26T04:11:06.206Z,6.10
2019-02-26T04:12:18.467Z,6.10
2019-02-26T04:13:28.475Z,6.10
2019-02-26T04:14:37.157Z,6.10
2019-02-26T04:15:51.360Z,6.10
2019-02-26T04:17:00.859Z,6.10
2019-02-26T04:18:08.314Z,6.00
2019-02-26T04:19:17.102Z,6.10
2019-02-26T04:20:27.743Z,6.00
2019-02-26T04:22:27.621Z,6.00
2019-02-26T04:23:38.805Z,6.00
2019-02-26T04:24:46.134Z,6.00
2019-02-26T04:26:59.954Z,6.00
2019-02-26T04:28:45.636Z,6.00
2019-02-26T04:30:41.613Z,6.00
2019-02-26T04:32:54.593Z,6.00
2019-02-26T04:35:12.595Z,5.90
2019-02-26T04:36:59.033Z,5.90
2019-02-26T04:38:53.000Z,5.90
2019-02-26T04:40:30.501Z,5.90
2019-02-26T04:42:22.675Z,5.80
2019-02-26T04:44:12.211Z,5.80
2019-02-26T04:46:39.350Z,5.80
2019-02-26T04:47:49.503Z,5.80
2019-02-26T04:48:57.948Z,5.80
2019-02-26T04:50:08.959Z,5.80
2019-02-26T04:51:18.038Z,5.70
2019-02-26T04:52:26.605Z,5.70
2019-02-26T04:53:36.465Z,5.70
2019-02-26T04:54:44.176Z,5.70
2019-02-26T04:55:52.985Z,5.70
2019-02-26T04:57:02.537Z,5.70
2019-02-26T04:58:14.735Z,5.70
2019-02-26T04:59:21.656Z,5.70
2019-02-26T05:00:35.326Z,5.70
2019-02-26T05:01:44.693Z,5.70
2019-02-26T05:02:53.141Z,5.60
2019-02-26T05:04:00.861Z,5.60
2019-02-26T05:05:08.634Z,5.60
2019-02-26T05:06:16.186Z,5.60
2019-02-26T05:07:23.748Z,5.60
2019-02-26T05:08:32.083Z,5.60
2019-02-26T05:09:40.880Z,5.60
2019-02-26T05:10:49.809Z,5.50
2019-02-26T05:11:57.715Z,5.60
2019-02-26T05:13:07.389Z,5.60
2019-02-26T05:14:16.847Z,5.50
2019-02-26T05:15:26.403Z,5.50
2019-02-26T05:16:35.317Z,5.50
2019-02-26T05:17:42.384Z,5.50
2019-02-26T05:18:51.672Z,5.50
2019-02-26T05:19:59.287Z,5.50
2019-02-26T05:21:08.326Z,5.50
2019-02-26T05:22:16.167Z,5.50
2019-02-26T05:23:25.907Z,5.50
2019-02-26T05:24:33.012Z,5.50
2019-02-26T05:25:44.845Z,5.50
2019-02-26T05:26:54.802Z,5.50
2019-02-26T05:28:06.294Z,5.50
2019-02-26T05:29:14.673Z,5.50
2019-02-26T05:30:30.640Z,5.50
2019-02-26T05:31:40.227Z,5.50
2019-02-26T05:32:51.111Z,5.50
2019-02-26T05:34:00.278Z,5.40
2019-02-26T05:35:11.605Z,5.40
2019-02-26T05:36:23.374Z,5.40
2019-02-26T05:37:35.374Z,5.40
2019-02-26T05:38:43.924Z,5.40
2019-02-26T05:39:54.593Z,5.40
2019-02-26T05:41:05.402Z,5.40
2019-02-26T05:42:13.042Z,5.40
2019-02-26T05:43:23.073Z,5.40
2019-02-26T05:44:36.074Z,5.40
2019-02-26T05:45:45.018Z,5.40
2019-02-26T05:46:54.042Z,5.40
2019-02-26T05:48:03.079Z,5.40
2019-02-26T05:49:15.753Z,5.40
2019-02-26T05:50:23.461Z,5.40
2019-02-26T05:51:33.502Z,5.40
2019-02-26T05:52:41.622Z,5.40
2019-02-26T05:53:52.174Z,5.40
2019-02-26T05:55:02.373Z,5.40
2019-02-26T05:56:17.148Z,5.40
2019-02-26T05:57:27.615Z,5.40
2019-02-26T05:58:38.764Z,5.40
2019-02-26T05:59:45.698Z,5.40
2019-02-26T06:00:56.705Z,5.40
2019-02-26T06:02:05.574Z,5.40
2019-02-26T06:03:18.560Z,5.40
2019-02-26T06:04:27.088Z,5.40
2019-02-26T06:05:35.878Z,5.40
2019-02-26T06:06:43.695Z,5.40
2019-02-26T06:07:54.454Z,5.40
2019-02-26T06:09:02.924Z,5.40
2019-02-26T06:10:12.842Z,5.40
2019-02-26T06:11:20.578Z,5.40
2019-02-26T06:12:30.561Z,5.40
2019-02-26T06:13:41.113Z,5.40
2019-02-26T06:14:51.511Z,5.40
2019-02-26T06:16:02.200Z,5.40
2019-02-26T06:17:10.515Z,5.40
2019-02-26T06:18:21.020Z,5.30
2019-02-26T06:19:46.058Z,5.40
2019-02-26T06:20:55.908Z,5.40
2019-02-26T06:22:05.512Z,5.30
2019-02-26T06:23:15.174Z,5.30
2019-02-26T06:24:26.774Z,5.30
2019-02-26T06:25:33.939Z,5.30
2019-02-26T06:26:46.870Z,5.30
2019-02-26T06:27:56.376Z,5.30
2019-02-26T06:29:07.648Z,5.30
2019-02-26T06:30:16.832Z,5.30
2019-02-26T06:31:25.150Z,5.30
2019-02-26T06:32:36.728Z,5.30
2019-02-26T06:33:47.176Z,5.30
2019-02-26T06:34:55.324Z,5.30
2019-02-26T06:36:06.529Z,5.40
2019-02-26T06:37:23.892Z,5.30
2019-02-26T06:38:34.968Z,5.30
2019-02-26T06:39:43.477Z,5.30
2019-02-26T06:40:51.435Z,5.30
2019-02-26T06:42:03.080Z,5.30
2019-02-26T06:43:12.166Z,5.30
2019-02-26T06:44:21.547Z,5.30
2019-02-26T06:45:29.148Z,5.30
2019-02-26T06:46:47.198Z,5.30
2019-02-26T06:47:58.525Z,5.30
2019-02-26T06:49:07.065Z,5.30
2019-02-26T06:50:16.592Z,5.30
2019-02-26T06:51:28.133Z,5.30
2019-02-26T06:52:38.188Z,5.30
2019-02-26T06:53:49.264Z,5.30
2019-02-26T06:54:59.595Z,5.30
2019-02-26T06:56:06.629Z,5.30
2019-02-26T06:57:20.429Z,5.30
2019-02-26T06:58:33.507Z,5.30
2019-02-26T06:59:41.189Z,5.30
2019-02-26T07:00:54.664Z,5.30
2019-02-26T07:02:00.050Z,5.30
2019-02-26T07:03:07.701Z,5.40
2019-02-26T07:04:16.824Z,5.30
2019-02-26T07:05:25.480Z,5.40
2019-02-26T07:06:34.972Z,5.40
2019-02-26T07:07:42.739Z,5.40
2019-02-26T07:08:51.096Z,5.40
2019-02-26T07:10:01.237Z,5.40
2019-02-26T07:11:12.735Z,5.40
2019-02-26T07:12:23.996Z,5.40
2019-02-26T07:13:33.870Z,5.40
2019-02-26T07:14:46.476Z,5.40
2019-02-26T07:15:57.499Z,5.40
2019-02-26T07:17:07.068Z,5.40
2019-02-26T07:18:17.694Z,5.40
2019-02-26T07:19:27.950Z,5.40
2019-02-26T07:20:39.394Z,5.40
2019-02-26T07:21:47.913Z,5.40
2019-02-26T07:22:56.049Z,5.40
2019-02-26T07:24:03.789Z,5.40
2019-02-26T07:25:15.292Z,5.40
2019-02-26T07:26:23.971Z,5.50
2019-02-26T07:27:33.707Z,5.40
2019-02-26T07:28:44.619Z,5.50
2019-02-26T07:29:53.110Z,5.50
2019-02-26T07:31:07.334Z,5.50
2019-02-26T07:32:17.890Z,5.50
2019-02-26T07:33:27.256Z,5.50
2019-02-26T07:34:34.815Z,5.50
2019-02-26T07:35:42.532Z,5.40
2019-02-26T07:36:52.539Z,5.40
2019-02-26T07:38:03.626Z,5.50
2019-02-26T07:39:15.533Z,5.40
2019-02-26T07:40:28.420Z,5.50
2019-02-26T07:41:39.296Z,5.50
2019-02-26T07:42:49.308Z,5.50
2019-02-26T07:43:56.485Z,5.50
2019-02-26T07:45:14.684Z,5.40
2019-02-26T07:46:19.283Z,5.50
2019-02-26T07:47:31.422Z,5.50
2019-02-26T07:48:42.237Z,5.50
2019-02-26T07:49:49.958Z,5.50
2019-02-26T07:50:57.913Z,5.50
2019-02-26T07:52:08.808Z,5.50
2019-02-26T07:53:19.670Z,5.50
2019-02-26T07:54:28.820Z,5.50
2019-02-26T07:55:38.231Z,5.50
2019-02-26T07:56:50.090Z,5.50
2019-02-26T07:57:58.513Z,5.50
2019-02-26T07:59:07.851Z,5.50
2019-02-26T08:00:18.648Z,5.60
2019-02-26T08:01:28.621Z,5.60
2019-02-26T08:02:37.457Z,5.60
2019-02-26T08:03:47.015Z,5.60
2019-02-26T08:04:56.523Z,5.60
2019-02-26T08:06:08.670Z,5.70
2019-02-26T08:07:16.488Z,5.70
2019-02-26T08:08:24.177Z,5.70
2019-02-26T08:09:37.196Z,5.80
2019-02-26T08:10:50.616Z,5.80
2019-02-26T08:11:57.938Z,5.90
2019-02-26T08:13:08.030Z,5.90
2019-02-26T08:14:16.594Z,5.90
2019-02-26T08:15:27.643Z,6.00
2019-02-26T08:16:34.839Z,6.00
2019-02-26T08:17:47.770Z,6.00
2019-02-26T08:18:54.128Z,6.10
2019-02-26T08:20:07.394Z,6.10
2019-02-26T08:21:17.602Z,6.10
2019-02-26T08:22:27.524Z,6.20
2019-02-26T08:23:41.261Z,6.20
2019-02-26T08:24:50.915Z,6.30
2019-02-26T08:26:00.472Z,6.40
2019-02-26T08:27:13.435Z,6.40
2019-02-26T08:28:23.012Z,6.40
2019-02-26T08:29:31.298Z,6.50
2019-02-26T08:30:42.322Z,6.50
2019-02-26T08:31:52.044Z,6.50
2019-02-26T08:33:02.683Z,6.60
2019-02-26T08:34:12.600Z,6.70
2019-02-26T08:35:20.020Z,6.70
2019-02-26T08:36:29.030Z,6.80
2019-02-26T08:37:37.647Z,6.80
2019-02-26T08:38:48.226Z,6.80
2019-02-26T08:39:57.739Z,6.90
2019-02-26T08:41:07.128Z,7.00
2019-02-26T08:42:14.969Z,7.00
2019-02-26T08:43:24.564Z,7.10
2019-02-26T08:44:32.306Z,7.10
2019-02-26T08:45:43.735Z,7.10
2019-02-26T08:46:51.527Z,7.20
2019-02-26T08:48:02.169Z,7.30
2019-02-26T08:49:11.097Z,7.30
2019-02-26T08:50:20.873Z,7.30
2019-02-26T08:51:32.206Z,7.40
2019-02-26T08:52:40.014Z,7.40
2019-02-26T08:53:49.592Z,7.50
2019-02-26T08:54:59.002Z,7.60
2019-02-26T08:56:08.426Z,7.60
2019-02-26T08:57:17.790Z,7.60
2019-02-26T08:58:26.377Z,7.70
2019-02-26T08:59:35.116Z,7.70
2019-02-26T09:00:45.351Z,7.70
2019-02-26T09:01:54.157Z,7.80
2019-02-26T09:03:01.940Z,7.80
2019-02-26T09:04:09.782Z,7.90
2019-02-26T09:05:17.836Z,7.90
2019-02-26T09:06:27.042Z,7.90
2019-02-26T09:07:34.915Z,8.00
2019-02-26T09:08:43.869Z,8.10
2019-02-26T09:09:55.385Z,8.10
2019-02-26T09:11:03.550Z,8.10
2019-02-26T09:12:15.129Z,8.20
2019-02-26T09:13:25.453Z,8.30
2019-02-26T09:14:37.508Z,8.30
2019-02-26T09:15:45.908Z,8.40
2019-02-26T09:16:54.949Z,8.40
2019-02-26T09:18:04.859Z,8.50
2019-02-26T09:19:14.288Z,8.50
2019-02-26T09:20:24.554Z,8.60
2019-02-26T09:21:36.955Z,8.60
2019-02-26T09:22:48.850Z,8.70
2019-02-26T09:24:00.007Z,8.80
2019-02-26T09:25:08.172Z,8.80
2019-02-26T09:26:17.427Z,8.90
2019-02-26T09:27:27.098Z,8.90
2019-02-26T09:28:36.395Z,9.00
2019-02-26T09:29:49.614Z,9.00
2019-02-26T09:31:01.043Z,9.00
2019-02-26T09:32:09.336Z,9.10
2019-02-26T09:33:17.319Z,9.20
2019-02-26T09:34:29.283Z,9.20
2019-02-26T09:35:37.087Z,9.30
2019-02-26T09:36:50.618Z,9.40
2019-02-26T09:38:00.718Z,9.40
2019-02-26T09:39:08.778Z,9.50
2019-02-26T09:40:23.505Z,9.60
2019-02-26T09:41:29.655Z,9.60
2019-02-26T09:42:43.951Z,9.70
2019-02-26T09:43:52.812Z,9.80
2019-02-26T09:45:02.224Z,9.90
2019-02-26T09:46:16.316Z,9.90
2019-02-26T09:47:31.563Z,10.00
2019-02-26T09:48:44.726Z,10.00
2019-02-26T09:49:52.174Z,10.10
2019-02-26T09:51:02.007Z,10.10
2019-02-26T09:52:11.571Z,10.20
2019-02-26T09:53:22.130Z,10.20
2019-02-26T09:54:30.743Z,10.30
2019-02-26T09:55:39.803Z,10.40
2019-02-26T09:56:49.993Z,10.40
2019-02-26T09:58:02.414Z,10.50
2019-02-26T09:59:14.675Z,10.50
2019-02-26T10:00:28.560Z,10.50
2019-02-26T10:01:35.357Z,10.60
2019-02-26T10:02:44.725Z,10.60
2019-02-26T10:03:56.464Z,10.70
2019-02-26T10:05:08.512Z,10.70
2019-02-26T10:06:16.777Z,10.80
2019-02-26T10:07:28.561Z,10.80
2019-02-26T10:08:38.288Z,10.90
2019-02-26T10:09:48.473Z,11.00
2019-02-26T10:10:59.642Z,11.00
2019-02-26T10:12:10.659Z,11.10
2019-02-26T10:13:21.107Z,11.20
2019-02-26T10:14:33.387Z,11.20
2019-02-26T10:15:44.326Z,11.30
2019-02-26T10:16:56.888Z,11.30
2019-02-26T10:18:07.238Z,11.40
2019-02-26T10:19:16.874Z,11.40
2019-02-26T10:20:28.783Z,11.50
2019-02-26T10:21:37.332Z,11.60
2019-02-26T10:22:47.592Z,11.60
2019-02-26T10:23:59.450Z,11.70
2019-02-26T10:25:09.099Z,11.80
2019-02-26T10:26:16.930Z,11.80
2019-02-26T10:27:25.835Z,11.90
2019-02-26T10:28:37.647Z,12.00
2019-02-26T10:29:47.539Z,12.00
2019-02-26T10:31:03.238Z,12.10
2019-02-26T10:32:12.038Z,12.20
2019-02-26T10:33:22.109Z,12.20
2019-02-26T10:34:30.430Z,12.30
2019-02-26T10:35:42.139Z,12.40
2019-02-26T10:36:52.912Z,12.50
2019-02-26T10:38:03.613Z,12.50
2019-02-26T10:39:11.500Z,12.60
2019-02-26T10:40:19.678Z,12.70
2019-02-26T10:41:29.645Z,12.80
2019-02-26T10:42:39.955Z,12.80
2019-02-26T10:43:47.766Z,12.90
2019-02-26T10:44:56.656Z,13.00
2019-02-26T10:46:04.397Z,13.00
2019-02-26T10:47:13.313Z,13.20
2019-02-26T10:48:22.762Z,13.20
2019-02-26T10:49:30.713Z,13.30
2019-02-26T10:50:40.300Z,13.40
2019-02-26T10:51:48.046Z,13.40
2019-02-26T10:53:01.435Z,13.50
2019-02-26T10:54:09.645Z,13.60
2019-02-26T10:55:21.884Z,13.70
2019-02-26T10:56:30.569Z,13.70
2019-02-26T10:57:39.113Z,13.80
2019-02-26T10:58:49.514Z,13.90
2019-02-26T10:59:59.641Z,13.90
2019-02-26T11:01:10.349Z,14.00
2019-02-26T11:02:22.101Z,14.10
2019-02-26T11:03:35.344Z,14.20
2019-02-26T11:04:43.445Z,14.20
2019-02-26T11:05:52.206Z,14.30
2019-02-26T11:07:01.680Z,14.40
2019-02-26T11:08:09.600Z,14.40
2019-02-26T11:09:22.371Z,14.50
2019-02-26T11:10:29.929Z,14.60
2019-02-26T11:11:39.850Z,14.60
2019-02-26T11:12:53.525Z,14.70
2019-02-26T11:14:02.694Z,14.80
2019-02-26T11:15:10.956Z,14.90
2019-02-26T11:16:25.267Z,14.90
2019-02-26T11:17:32.425Z,15.00
2019-02-26T11:18:42.747Z,15.10
2019-02-26T11:19:52.995Z,15.10
2019-02-26T11:21:02.517Z,15.20
2019-02-26T11:22:11.918Z,15.30
2019-02-26T11:23:30.512Z,15.40
2019-02-26T11:24:33.687Z,15.50
2019-02-26T11:25:42.400Z,15.50
2019-02-26T11:26:50.277Z,15.60
2019-02-26T11:28:00.021Z,15.70
2019-02-26T11:29:08.760Z,15.70
2019-02-26T11:30:38.015Z,15.80
2019-02-26T11:31:47.730Z,15.90
2019-02-26T11:32:58.691Z,16.00
2019-02-26T11:34:09.234Z,16.10
2019-02-26T11:35:17.010Z,16.10
2019-02-26T11:36:25.156Z,16.20
2019-02-26T11:37:34.954Z,16.30
2019-02-26T11:38:44.511Z,16.40
2019-02-26T11:39:55.020Z,16.50
2019-02-26T11:41:04.667Z,16.60
2019-02-26T11:42:13.402Z,16.70
2019-02-26T11:43:23.885Z,16.80
2019-02-26T11:44:31.560Z,16.80
2019-02-26T11:45:41.460Z,17.00
2019-02-26T11:46:51.373Z,17.00
2019-02-26T11:48:03.719Z,17.20
2019-02-26T11:49:14.841Z,17.20
2019-02-26T11:50:27.130Z,17.30
2019-02-26T11:51:37.163Z,17.40
2019-02-26T11:52:44.267Z,17.50
2019-02-26T11:53:53.046Z,17.60
2019-02-26T11:55:05.318Z,17.60
2019-02-26T11:56:10.671Z,17.70
2019-02-26T11:57:18.342Z,17.80
2019-02-26T11:58:26.998Z,17.80
2019-02-26T11:59:35.673Z,18.00
2019-02-26T12:00:52.420Z,18.00
2019-02-26T12:02:01.427Z,18.10
2019-02-26T12:03:09.495Z,18.20
2019-02-26T12:04:17.377Z,18.30
2019-02-26T12:05:32.812Z,18.30
2019-02-26T12:06:34.485Z,18.40
2019-02-26T12:07:42.064Z,18.40
2019-02-26T12:08:50.046Z,18.50
2019-02-26T12:09:58.434Z,18.60
2019-02-26T12:11:12.287Z,18.70
2019-02-26T12:12:16.223Z,18.70
2019-02-26T12:13:25.047Z,18.80
2019-02-26T12:14:34.697Z,18.90
2019-02-26T12:15:42.837Z,18.90
2019-02-26T12:16:50.547Z,19.00
2019-02-26T12:17:58.763Z,19.10
2019-02-26T12:19:08.245Z,19.20
2019-02-26T12:20:19.570Z,19.20
2019-02-26T12:21:32.203Z,19.30
2019-02-26T12:22:41.286Z,19.40
2019-02-26T12:23:49.788Z,19.40
2019-02-26T12:25:04.411Z,19.50
2019-02-26T12:26:10.031Z,19.60
2019-02-26T12:27:19.089Z,19.60
2019-02-26T12:28:31.752Z,19.70
2019-02-26T12:29:42.246Z,19.70
2019-02-26T12:30:52.285Z,19.70
2019-02-26T12:32:04.816Z,19.80
2019-02-26T12:33:12.415Z,19.80
2019-02-26T12:34:24.052Z,19.90
2019-02-26T12:35:33.844Z,19.90
2019-02-26T12:36:43.413Z,20.00
2019-02-26T12:37:53.897Z,20.00
2019-02-26T12:39:02.421Z,20.10
2019-02-26T12:40:13.797Z,20.10
2019-02-26T12:41:24.072Z,20.20
2019-02-26T12:42:34.286Z,20.30
2019-02-26T12:43:46.468Z,20.30
2019-02-26T12:44:57.444Z,20.40
2019-02-26T12:46:08.443Z,20.40
2019-02-26T12:47:18.736Z,20.50
2019-02-26T12:48:27.257Z,20.60
2019-02-26T12:49:38.392Z,20.70
2019-02-26T12:50:47.594Z,20.70
2019-02-26T12:51:56.684Z,20.70
2019-02-26T12:53:08.734Z,20.80
2019-02-26T12:54:17.415Z,20.80
2019-02-26T12:55:29.469Z,20.90
2019-02-26T12:56:37.351Z,20.90
2019-02-26T12:57:49.811Z,21.00
2019-02-26T12:58:59.835Z,21.10
2019-02-26T13:00:13.367Z,21.20
2019-02-26T13:01:22.198Z,21.20
2019-02-26T13:02:31.595Z,21.30
2019-02-26T13:03:42.761Z,21.40
2019-02-26T13:04:53.372Z,21.40
2019-02-26T13:06:01.823Z,21.50
2019-02-26T13:07:12.466Z,21.50
2019-02-26T13:08:24.118Z,21.60
2019-02-26T13:09:39.091Z,21.60
2019-02-26T13:10:49.748Z,21.60
2019-02-26T13:12:02.339Z,21.70
2019-02-26T13:13:09.945Z,21.80
2019-02-26T13:14:18.648Z,21.80
2019-02-26T13:15:27.719Z,21.90
2019-02-26T13:16:35.628Z,21.90
2019-02-26T13:17:44.498Z,21.90
2019-02-26T13:18:58.517Z,22.00
2019-02-26T13:20:06.085Z,22.00
2019-02-26T13:21:16.996Z,22.00
2019-02-26T13:22:24.407Z,22.10
2019-02-26T13:23:34.979Z,22.10
2019-02-26T13:24:43.767Z,22.10
2019-02-26T13:25:55.816Z,22.20
2019-02-26T13:27:04.526Z,22.20
2019-02-26T13:28:13.139Z,22.30
2019-02-26T13:29:25.290Z,22.30
2019-02-26T13:30:33.216Z,22.40
2019-02-26T13:31:50.163Z,22.40
2019-02-26T13:32:56.225Z,22.40
2019-02-26T13:34:02.666Z,22.40
2019-02-26T13:35:11.204Z,22.50
2019-02-26T13:36:19.351Z,22.60
2019-02-26T13:37:34.673Z,22.60
2019-02-26T13:38:44.843Z,22.60
2019-02-26T13:39:51.199Z,22.70
2019-02-26T13:42:18.148Z,22.80
2019-02-26T13:43:24.059Z,22.80
2019-02-26T13:44:31.782Z,22.80
2019-02-26T13:45:39.700Z,22.90
2019-02-26T13:46:48.483Z,22.90
2019-02-26T13:48:01.314Z,22.90
2019-02-26T13:49:07.455Z,22.90
2019-02-26T13:50:22.737Z,22.90
2019-02-26T13:51:33.743Z,22.90
2019-02-26T13:52:43.286Z,22.90
2019-02-26T13:53:52.675Z,22.90
2019-02-26T13:55:03.870Z,22.90
2019-02-26T13:56:11.834Z,23.00
2019-02-26T13:57:19.360Z,23.00
2019-02-26T13:58:26.794Z,23.00
2019-02-26T13:59:34.222Z,23.10
2019-02-26T14:00:41.975Z,23.10
2019-02-26T14:01:49.142Z,23.10
2019-02-26T14:02:56.298Z,23.10
2019-02-26T14:04:03.477Z,23.10
2019-02-26T14:05:12.220Z,23.10
2019-02-26T14:06:19.463Z,23.10
2019-02-26T14:07:26.828Z,23.00
2019-02-26T14:08:33.994Z,23.00
2019-02-26T14:09:41.160Z,23.00
2019-02-26T14:10:49.401Z,23.00
2019-02-26T14:11:56.562Z,22.90
2019-02-26T14:13:03.927Z,22.90
2019-02-26T14:14:11.108Z,22.90
2019-02-26T14:15:21.933Z,22.90
2019-02-26T14:16:32.571Z,22.90
2019-02-26T14:17:38.331Z,22.80
2019-02-26T14:18:45.774Z,22.80
2019-02-26T14:19:53.215Z,22.80
2019-02-26T14:21:00.657Z,22.80
2019-02-26T14:22:08.101Z,22.80
2019-02-26T14:23:15.638Z,22.80
2019-02-26T14:24:24.485Z,22.80
2019-02-26T14:25:32.033Z,22.80
2019-02-26T14:26:39.364Z,22.80
2019-02-26T14:27:47.021Z,22.80
2019-02-26T14:28:54.355Z,22.80
2019-02-26T14:30:01.721Z,22.90
2019-02-26T14:31:10.546Z,22.80
2019-02-26T14:32:17.708Z,22.80
2019-02-26T14:33:25.827Z,22.80
2019-02-26T14:34:33.005Z,22.80
2019-02-26T14:35:40.180Z,22.80
2019-02-26T14:36:47.412Z,22.80
2019-02-26T14:37:54.562Z,22.80
2019-02-26T14:39:01.734Z,22.80
2019-02-26T14:40:12.757Z,22.80
2019-02-26T14:41:21.186Z,22.70
2019-02-26T14:42:28.327Z,22.70
2019-02-26T14:43:35.477Z,22.60
2019-02-26T14:44:42.638Z,22.60
2019-02-26T14:45:49.801Z,22.60
2019-02-26T14:46:56.980Z,22.60
2019-02-26T14:48:04.146Z,22.60
2019-02-26T14:49:11.314Z,22.50
2019-02-26T14:50:18.931Z,22.40
2019-02-26T14:51:26.084Z,22.40
2019-02-26T14:52:33.258Z,22.40
2019-02-26T14:53:40.430Z,22.30
2019-02-26T14:54:47.507Z,22.30
2019-02-26T14:55:54.662Z,22.20
2019-02-26T14:57:01.831Z,22.20
2019-02-26T14:58:09.024Z,22.20
2019-02-26T14:59:16.207Z,22.20
2019-02-26T15:00:26.329Z,22.10
2019-02-26T15:01:33.478Z,22.00
2019-02-26T15:02:40.632Z,22.00
2019-02-26T15:03:47.715Z,21.90
2019-02-26T15:04:54.902Z,21.90
2019-02-26T15:06:02.065Z,21.90
2019-02-26T15:07:09.149Z,21.90
2019-02-26T15:08:16.325Z,21.80
2019-02-26T15:09:24.952Z,21.70
2019-02-26T15:10:32.108Z,21.70
2019-02-26T15:11:39.312Z,21.70
2019-02-26T15:12:46.880Z,21.60
2019-02-26T15:13:54.050Z,21.60
2019-02-26T15:15:01.230Z,21.60
2019-02-26T15:16:08.758Z,21.50
2019-02-26T15:17:15.909Z,21.50
2019-02-26T15:18:23.089Z,21.50
2019-02-26T15:19:30.244Z,21.40
2019-02-26T15:20:37.407Z,21.40
2019-02-26T15:21:44.580Z,21.30
2019-02-26T15:22:51.902Z,21.30
2019-02-26T15:23:59.244Z,21.20
2019-02-26T15:25:08.931Z,21.20
2019-02-26T15:26:16.097Z,21.10
2019-02-26T15:27:23.182Z,21.10